sensor_id;sensor_type;location;lat;lon;timestamp;pressure;altitude;pressure_sealevel;temperature;humidity
50977;BME280;36992;48.200;12.418;2023-03-16T00:00:48;97128.41;;;6.69;51.08
50977;BME280;36992;48.200;12.418;2023-03-16T00:03:15;97126.28;;;6.66;51.11
50977;BME280;36992;48.200;12.418;2023-03-16T00:05:43;97121.97;;;6.65;50.97
50977;BME280;36992;48.200;12.418;2023-03-16T00:08:10;97134.78;;;6.63;51.07
50977;BME280;36992;48.200;12.418;2023-03-16T00:10:37;97135.31;;;6.59;51.33
50977;BME280;36992;48.200;12.418;2023-03-16T00:13:04;97139.84;;;6.59;51.02
50977;BME280;36992;48.200;12.418;2023-03-16T00:15:32;97139.06;;;6.58;50.83
50977;BME280;36992;48.200;12.418;2023-03-16T00:17:59;97139.31;;;6.57;50.93
50977;BME280;36992;48.200;12.418;2023-03-16T00:20:26;97136.63;;;6.57;50.83
50977;BME280;36992;48.200;12.418;2023-03-16T00:22:52;97138.25;;;6.58;51.09
50977;BME280;36992;48.200;12.418;2023-03-16T00:25:19;97148.72;;;6.59;51.00
50977;BME280;36992;48.200;12.418;2023-03-16T00:27:45;97148.72;;;6.59;50.99
50977;BME280;36992;48.200;12.418;2023-03-16T00:30:12;97142.28;;;6.60;50.77
50977;BME280;36992;48.200;12.418;2023-03-16T00:32:40;97140.97;;;6.63;50.58
50977;BME280;36992;48.200;12.418;2023-03-16T00:35:07;97140.16;;;6.63;50.79
50977;BME280;36992;48.200;12.418;2023-03-16T00:37:34;97134.78;;;6.63;50.75
50977;BME280;36992;48.200;12.418;2023-03-16T00:40:01;97145.50;;;6.63;50.90
50977;BME280;36992;48.200;12.418;2023-03-16T00:42:29;97147.16;;;6.64;50.67
50977;BME280;36992;48.200;12.418;2023-03-16T00:44:59;97145.50;;;6.63;50.74
50977;BME280;36992;48.200;12.418;2023-03-16T00:47:27;97147.16;;;6.64;50.62
50977;BME280;36992;48.200;12.418;2023-03-16T00:49:56;97154.09;;;6.65;50.56
50977;BME280;36992;48.200;12.418;2023-03-16T00:52:23;97151.94;;;6.61;50.62
50977;BME280;36992;48.200;12.418;2023-03-16T00:54:52;97147.66;;;6.60;50.58
50977;BME280;36992;48.200;12.418;2023-03-16T00:57:21;97153.00;;;6.60;50.49
50977;BME280;36992;48.200;12.418;2023-03-16T00:59:49;97149.78;;;6.58;50.62
50977;BME280;36992;48.200;12.418;2023-03-16T01:02:17;97147.34;;;6.57;50.77
50977;BME280;36992;48.200;12.418;2023-03-16T01:04:47;97142.25;;;6.55;50.71
50977;BME280;36992;48.200;12.418;2023-03-16T01:07:15;97136.88;;;6.55;50.57
50977;BME280;36992;48.200;12.418;2023-03-16T01:09:42;97134.75;;;6.52;50.95
50977;BME280;36992;48.200;12.418;2023-03-16T01:12:11;97133.13;;;6.51;50.85
50977;BME280;36992;48.200;12.418;2023-03-16T01:14:38;97141.66;;;6.48;50.88
50977;BME280;36992;48.200;12.418;2023-03-16T01:17:06;97141.09;;;6.46;50.71
50977;BME280;36992;48.200;12.418;2023-03-16T01:19:34;97143.78;;;6.46;50.71
50977;BME280;36992;48.200;12.418;2023-03-16T01:22:01;97139.50;;;6.45;50.99
50977;BME280;36992;48.200;12.418;2023-03-16T01:24:29;97137.38;;;6.47;50.71
50977;BME280;36992;48.200;12.418;2023-03-16T01:26:56;97137.84;;;6.44;50.85
50977;BME280;36992;48.200;12.418;2023-03-16T01:29:22;97141.59;;;6.43;50.86
50977;BME280;36992;48.200;12.418;2023-03-16T01:31:49;97139.44;;;6.40;50.81
50977;BME280;36992;48.200;12.418;2023-03-16T01:34:16;97138.88;;;6.38;50.92
50977;BME280;36992;48.200;12.418;2023-03-16T01:36:43;97135.66;;;6.36;50.89
50977;BME280;36992;48.200;12.418;2023-03-16T01:39:10;97128.69;;;6.34;50.87
50977;BME280;36992;48.200;12.418;2023-03-16T01:41:38;97121.72;;;6.33;50.71
50977;BME280;36992;48.200;12.418;2023-03-16T01:44:05;97121.69;;;6.28;50.80
50977;BME280;36992;48.200;12.418;2023-03-16T01:46:32;97130.78;;;6.27;50.89
50977;BME280;36992;48.200;12.418;2023-03-16T01:49:06;97125.19;;;6.29;50.29
50977;BME280;36992;48.200;12.418;2023-03-16T01:51:36;97117.66;;;6.26;50.68
50977;BME280;36992;48.200;12.418;2023-03-16T01:54:12;97119.50;;;6.25;50.49
50977;BME280;36992;48.200;12.418;2023-03-16T01:56:44;97119.50;;;6.25;50.27
50977;BME280;36992;48.200;12.418;2023-03-16T01:59:16;97120.56;;;6.24;50.40
50977;BME280;36992;48.200;12.418;2023-03-16T02:01:45;97113.59;;;6.23;50.38
50977;BME280;36992;48.200;12.418;2023-03-16T02:04:19;97113.59;;;6.23;50.24
50977;BME280;36992;48.200;12.418;2023-03-16T02:06:49;97122.16;;;6.20;50.19
50977;BME280;36992;48.200;12.418;2023-03-16T02:09:15;97118.13;;;6.17;50.19
50977;BME280;36992;48.200;12.418;2023-03-16T02:11:45;97114.38;;;6.18;50.25
50977;BME280;36992;48.200;12.418;2023-03-16T02:14:12;97108.72;;;6.15;50.31
50977;BME280;36992;48.200;12.418;2023-03-16T02:16:40;97119.44;;;6.15;50.26
50977;BME280;36992;48.200;12.418;2023-03-16T02:19:10;97110.34;;;6.16;50.09
50977;BME280;36992;48.200;12.418;2023-03-16T02:21:46;97115.69;;;6.16;49.75
50977;BME280;36992;48.200;12.418;2023-03-16T02:24:14;97108.25;;;6.23;49.35
50977;BME280;36992;48.200;12.418;2023-03-16T02:26:42;97116.19;;;6.13;49.89
50977;BME280;36992;48.200;12.418;2023-03-16T02:29:21;97104.38;;;6.09;49.79
50977;BME280;36992;48.200;12.418;2023-03-16T02:31:51;97102.72;;;6.02;49.90
50977;BME280;36992;48.200;12.418;2023-03-16T02:34:19;97112.28;;;5.98;50.38
50977;BME280;36992;48.200;12.418;2023-03-16T02:36:46;97116.56;;;5.99;50.63
50977;BME280;36992;48.200;12.418;2023-03-16T02:39:14;97115.19;;;5.97;50.89
50977;BME280;36992;48.200;12.418;2023-03-16T02:41:40;97115.19;;;5.97;50.73
50977;BME280;36992;48.200;12.418;2023-03-16T02:44:10;97117.63;;;5.98;50.69
50977;BME280;36992;48.200;12.418;2023-03-16T02:46:41;97110.13;;;5.95;51.31
50977;BME280;36992;48.200;12.418;2023-03-16T02:49:14;97118.69;;;5.97;50.73
50977;BME280;36992;48.200;12.418;2023-03-16T02:51:43;97126.66;;;5.92;51.30
50977;BME280;36992;48.200;12.418;2023-03-16T02:54:09;97120.75;;;5.90;51.15
50977;BME280;36992;48.200;12.418;2023-03-16T02:56:37;97120.19;;;5.88;51.59
50977;BME280;36992;48.200;12.418;2023-03-16T02:59:03;97119.09;;;5.84;51.56
50977;BME280;36992;48.200;12.418;2023-03-16T03:01:29;97122.81;;;5.83;51.45
50977;BME280;36992;48.200;12.418;2023-03-16T03:03:59;97112.63;;;5.79;51.42
50977;BME280;36992;48.200;12.418;2023-03-16T03:06:27;97121.69;;;5.78;51.32
50977;BME280;36992;48.200;12.418;2023-03-16T03:08:53;97127.53;;;5.75;51.59
50977;BME280;36992;48.200;12.418;2023-03-16T03:11:20;97123.75;;;5.71;51.61
50977;BME280;36992;48.200;12.418;2023-03-16T03:13:46;97121.56;;;5.68;51.54
50977;BME280;36992;48.200;12.418;2023-03-16T03:16:13;97127.44;;;5.65;51.79
50977;BME280;36992;48.200;12.418;2023-03-16T03:18:40;97124.19;;;5.63;51.94
50977;BME280;36992;48.200;12.418;2023-03-16T03:21:06;97128.75;;;5.62;51.75
50977;BME280;36992;48.200;12.418;2023-03-16T03:23:34;97115.13;;;5.64;51.50
50977;BME280;36992;48.200;12.418;2023-03-16T03:26:01;97124.19;;;5.63;51.85
50977;BME280;36992;48.200;12.418;2023-03-16T03:28:28;97123.41;;;5.62;51.82
50977;BME280;36992;48.200;12.418;2023-03-16T03:30:55;97126.84;;;5.63;51.84
50977;BME280;36992;48.200;12.418;2023-03-16T03:33:22;97129.53;;;5.63;51.83
50977;BME280;36992;48.200;12.418;2023-03-16T03:35:53;97133.56;;;5.65;51.47
50977;BME280;36992;48.200;12.418;2023-03-16T03:38:19;97128.75;;;5.62;51.72
50977;BME280;36992;48.200;12.418;2023-03-16T03:40:49;97132.78;;;5.65;51.65
50977;BME280;36992;48.200;12.418;2023-03-16T03:43:15;97141.03;;;5.63;51.88
50977;BME280;36992;48.200;12.418;2023-03-16T03:45:42;97138.63;;;5.62;51.97
50977;BME280;36992;48.200;12.418;2023-03-16T03:48:08;97128.97;;;5.61;52.10
50977;BME280;36992;48.200;12.418;2023-03-16T03:50:35;97131.66;;;5.61;51.97
50977;BME280;36992;48.200;12.418;2023-03-16T03:53:02;97131.66;;;5.61;52.10
50977;BME280;36992;48.200;12.418;2023-03-16T03:55:29;97134.31;;;5.61;52.00
50977;BME280;36992;48.200;12.418;2023-03-16T03:57:57;97129.53;;;5.63;51.68
50977;BME280;36992;48.200;12.418;2023-03-16T04:00:23;97134.31;;;5.61;51.87
50977;BME280;36992;48.200;12.418;2023-03-16T04:02:50;97140.75;;;5.60;51.20
50977;BME280;36992;48.200;12.418;2023-03-16T04:05:16;97136.94;;;5.56;51.34
50977;BME280;36992;48.200;12.418;2023-03-16T04:07:43;97134.19;;;5.50;51.75
50977;BME280;36992;48.200;12.418;2023-03-16T04:10:09;97135.53;;;5.48;51.70
50977;BME280;36992;48.200;12.418;2023-03-16T04:12:36;97126.13;;;5.45;52.14
50977;BME280;36992;48.200;12.418;2023-03-16T04:15:05;97126.69;;;5.47;52.00
50977;BME280;36992;48.200;12.418;2023-03-16T04:17:31;97126.38;;;5.44;52.17
50977;BME280;36992;48.200;12.418;2023-03-16T04:19:58;97127.16;;;5.44;52.16
50977;BME280;36992;48.200;12.418;2023-03-16T04:22:26;97126.13;;;5.45;51.75
50977;BME280;36992;48.200;12.418;2023-03-16T04:24:54;97118.91;;;5.46;51.56
50977;BME280;36992;48.200;12.418;2023-03-16T04:27:20;97136.00;;;5.45;51.56
50977;BME280;36992;48.200;12.418;2023-03-16T04:29:47;97127.16;;;5.44;51.51
50977;BME280;36992;48.200;12.418;2023-03-16T04:32:15;97125.31;;;5.45;51.17
50977;BME280;36992;48.200;12.418;2023-03-16T04:34:41;97128.50;;;5.42;51.60
50977;BME280;36992;48.200;12.418;2023-03-16T04:37:08;97125.00;;;5.41;51.60
50977;BME280;36992;48.200;12.418;2023-03-16T04:39:35;97122.34;;;5.41;51.63
50977;BME280;36992;48.200;12.418;2023-03-16T04:42:01;97126.06;;;5.40;51.59
50977;BME280;36992;48.200;12.418;2023-03-16T04:44:28;97129.81;;;5.39;51.30
50977;BME280;36992;48.200;12.418;2023-03-16T04:46:54;97124.94;;;5.36;51.48
50977;BME280;36992;48.200;12.418;2023-03-16T04:49:22;97126.00;;;5.35;51.40
50977;BME280;36992;48.200;12.418;2023-03-16T04:51:49;97132.88;;;5.31;51.50
50977;BME280;36992;48.200;12.418;2023-03-16T04:54:15;97140.13;;;5.30;51.61
50977;BME280;36992;48.200;12.418;2023-03-16T04:56:41;97140.34;;;5.29;51.71
50977;BME280;36992;48.200;12.418;2023-03-16T04:59:08;97135.81;;;5.29;51.35
50977;BME280;36992;48.200;12.418;2023-03-16T05:01:34;97144.09;;;5.28;51.65
50977;BME280;36992;48.200;12.418;2023-03-16T05:04:02;97145.38;;;5.25;51.48
50977;BME280;36992;48.200;12.418;2023-03-16T05:06:30;97139.53;;;5.28;51.35
50977;BME280;36992;48.200;12.418;2023-03-16T05:08:58;97135.50;;;5.25;51.71
50977;BME280;36992;48.200;12.418;2023-03-16T05:11:25;97137.59;;;5.23;51.73
50977;BME280;36992;48.200;12.418;2023-03-16T05:13:51;97136.00;;;5.22;51.60
50977;BME280;36992;48.200;12.418;2023-03-16T05:16:18;97138.91;;;5.21;51.47
50977;BME280;36992;48.200;12.418;2023-03-16T05:18:44;97136.50;;;5.19;51.47
50977;BME280;36992;48.200;12.418;2023-03-16T05:21:11;97129.53;;;5.18;51.42
50977;BME280;36992;48.200;12.418;2023-03-16T05:23:39;97124.19;;;5.18;51.08
50977;BME280;36992;48.200;12.418;2023-03-16T05:26:05;97136.16;;;5.16;51.29
50977;BME280;36992;48.200;12.418;2023-03-16T05:28:32;97122.50;;;5.12;51.40
50977;BME280;36992;48.200;12.418;2023-03-16T05:30:58;97123.56;;;5.11;51.05
50977;BME280;36992;48.200;12.418;2023-03-16T05:33:27;97128.34;;;5.09;51.43
50977;BME280;36992;48.200;12.418;2023-03-16T05:35:54;97124.84;;;5.08;51.33
50977;BME280;36992;48.200;12.418;2023-03-16T05:38:22;97119.78;;;5.07;50.87
50977;BME280;36992;48.200;12.418;2023-03-16T05:40:50;97125.66;;;5.09;50.95
50977;BME280;36992;48.200;12.418;2023-03-16T05:43:17;97126.16;;;5.06;51.30
50977;BME280;36992;48.200;12.418;2023-03-16T05:45:43;97126.16;;;5.06;51.38
50977;BME280;36992;48.200;12.418;2023-03-16T05:48:10;97130.47;;;5.07;50.73
50977;BME280;36992;48.200;12.418;2023-03-16T05:50:37;97125.34;;;5.05;50.98
50977;BME280;36992;48.200;12.418;2023-03-16T05:53:03;97122.69;;;5.05;50.94
50977;BME280;36992;48.200;12.418;2023-03-16T05:55:29;97123.75;;;5.04;51.02
50977;BME280;36992;48.200;12.418;2023-03-16T05:57:58;97126.16;;;5.06;50.90
50977;BME280;36992;48.200;12.418;2023-03-16T06:00:24;97116.75;;;5.03;50.65
50977;BME280;36992;48.200;12.418;2023-03-16T06:02:52;97130.38;;;5.02;51.15
50977;BME280;36992;48.200;12.418;2023-03-16T06:05:20;97130.38;;;5.02;50.79
50977;BME280;36992;48.200;12.418;2023-03-16T06:07:48;97138.06;;;4.98;50.56
50977;BME280;36992;48.200;12.418;2023-03-16T06:10:15;97139.59;;;4.94;51.14
50977;BME280;36992;48.200;12.418;2023-03-16T06:12:42;97134.50;;;4.92;51.37
50977;BME280;36992;48.200;12.418;2023-03-16T06:15:11;97126.50;;;4.92;51.23
50977;BME280;36992;48.200;12.418;2023-03-16T06:17:38;97124.06;;;4.91;51.69
50977;BME280;36992;48.200;12.418;2023-03-16T06:20:08;97122.78;;;4.93;51.49
50977;BME280;36992;48.200;12.418;2023-03-16T06:22:37;97128.63;;;4.90;51.30
50977;BME280;36992;48.200;12.418;2023-03-16T06:25:05;97125.41;;;4.88;51.78
50977;BME280;36992;48.200;12.418;2023-03-16T06:27:32;97123.75;;;4.87;52.01
50977;BME280;36992;48.200;12.418;2023-03-16T06:29:58;97122.97;;;4.86;52.15
50977;BME280;36992;48.200;12.418;2023-03-16T06:32:27;97132.34;;;4.89;52.05
50977;BME280;36992;48.200;12.418;2023-03-16T06:34:53;97121.06;;;4.87;52.39
50977;BME280;36992;48.200;12.418;2023-03-16T06:37:20;97114.94;;;4.86;52.43
50977;BME280;36992;48.200;12.418;2023-03-16T06:39:46;97125.41;;;4.88;52.46
50977;BME280;36992;48.200;12.418;2023-03-16T06:42:13;97128.63;;;4.90;52.90
50977;BME280;36992;48.200;12.418;2023-03-16T06:44:39;97130.00;;;4.93;52.50
50977;BME280;36992;48.200;12.418;2023-03-16T06:47:07;97128.69;;;4.95;52.56
50977;BME280;36992;48.200;12.418;2023-03-16T06:49:35;97128.44;;;4.97;52.38
50977;BME280;36992;48.200;12.418;2023-03-16T06:52:02;97131.69;;;4.99;52.67
50977;BME280;36992;48.200;12.418;2023-03-16T06:54:29;97129.56;;;5.01;52.78
50977;BME280;36992;48.200;12.418;2023-03-16T06:56:56;97129.88;;;5.05;52.61
50977;BME280;36992;48.200;12.418;2023-03-16T06:59:23;97138.47;;;5.07;52.59
50977;BME280;36992;48.200;12.418;2023-03-16T07:01:49;97133.69;;;5.09;52.71
50977;BME280;36992;48.200;12.418;2023-03-16T07:04:16;97127.28;;;5.10;52.88
50977;BME280;36992;48.200;12.418;2023-03-16T07:06:43;97130.25;;;5.13;52.56
50977;BME280;36992;48.200;12.418;2023-03-16T07:09:10;97132.16;;;5.13;52.95
50977;BME280;36992;48.200;12.418;2023-03-16T07:11:36;97139.66;;;5.16;52.83
50977;BME280;36992;48.200;12.418;2023-03-16T07:14:03;97136.50;;;5.19;52.79
50977;BME280;36992;48.200;12.418;2023-03-16T07:16:30;97129.03;;;5.21;52.68
50977;BME280;36992;48.200;12.418;2023-03-16T07:18:57;97134.94;;;5.23;52.72
50977;BME280;36992;48.200;12.418;2023-03-16T07:21:23;97130.19;;;5.25;52.76
50977;BME280;36992;48.200;12.418;2023-03-16T07:23:51;97135.56;;;5.31;52.86
50977;BME280;36992;48.200;12.418;2023-03-16T07:26:20;97144.41;;;5.31;52.61
50977;BME280;36992;48.200;12.418;2023-03-16T07:28:47;97141.47;;;5.33;52.65
50977;BME280;36992;48.200;12.418;2023-03-16T07:31:13;97141.22;;;5.34;52.65
50977;BME280;36992;48.200;12.418;2023-03-16T07:33:40;97140.97;;;5.36;52.62
50977;BME280;36992;48.200;12.418;2023-03-16T07:36:07;97146.06;;;5.37;52.37
50977;BME280;36992;48.200;12.418;2023-03-16T07:38:34;97142.03;;;5.35;52.49
50977;BME280;36992;48.200;12.418;2023-03-16T07:41:02;97144.69;;;5.35;52.73
50977;BME280;36992;48.200;12.418;2023-03-16T07:43:29;97148.19;;;5.35;52.85
50977;BME280;36992;48.200;12.418;2023-03-16T07:45:55;97146.31;;;5.36;52.59
50977;BME280;36992;48.200;12.418;2023-03-16T07:48:22;97147.94;;;5.37;52.76
50977;BME280;36992;48.200;12.418;2023-03-16T07:50:49;97153.28;;;5.37;53.07
50977;BME280;36992;48.200;12.418;2023-03-16T07:53:15;97158.94;;;5.40;52.45
50977;BME280;36992;48.200;12.418;2023-03-16T07:55:42;97156.53;;;5.39;52.78
50977;BME280;36992;48.200;12.418;2023-03-16T07:58:11;97161.59;;;5.40;52.67
50977;BME280;36992;48.200;12.418;2023-03-16T08:00:38;97153.84;;;5.39;52.84
50977;BME280;36992;48.200;12.418;2023-03-16T08:03:05;97157.56;;;5.38;52.82
50977;BME280;36992;48.200;12.418;2023-03-16T08:05:31;97160.50;;;5.36;52.89
50977;BME280;36992;48.200;12.418;2023-03-16T08:07:58;97157.56;;;5.38;52.80
50977;BME280;36992;48.200;12.418;2023-03-16T08:10:25;97166.69;;;5.42;52.56
50977;BME280;36992;48.200;12.418;2023-03-16T08:12:52;97162.66;;;5.39;53.01
50977;BME280;36992;48.200;12.418;2023-03-16T08:15:20;97164.28;;;5.40;53.11
50977;BME280;36992;48.200;12.418;2023-03-16T08:17:46;97177.31;;;5.37;53.35
50977;BME280;36992;48.200;12.418;2023-03-16T08:20:13;97173.59;;;5.38;53.05
50977;BME280;36992;48.200;12.418;2023-03-16T08:22:40;97165.34;;;5.39;53.19
50977;BME280;36992;48.200;12.418;2023-03-16T08:25:10;97164.03;;;5.42;52.91
50977;BME280;36992;48.200;12.418;2023-03-16T08:27:37;97170.75;;;5.45;52.57
50977;BME280;36992;48.200;12.418;2023-03-16T08:30:05;97169.38;;;5.42;53.12
50977;BME280;36992;48.200;12.418;2023-03-16T08:32:33;97170.19;;;5.43;52.51
50977;BME280;36992;48.200;12.418;2023-03-16T08:34:59;97179.50;;;5.40;52.74
50977;BME280;36992;48.200;12.418;2023-03-16T08:37:27;97173.59;;;5.38;53.22
50977;BME280;36992;48.200;12.418;2023-03-16T08:39:54;97187.44;;;5.35;53.46
50977;BME280;36992;48.200;12.418;2023-03-16T08:42:20;97172.47;;;5.34;53.63
50977;BME280;36992;48.200;12.418;2023-03-16T08:44:47;97178.38;;;5.36;53.98
50977;BME280;36992;48.200;12.418;2023-03-16T08:47:15;97179.50;;;5.40;53.42
50977;BME280;36992;48.200;12.418;2023-03-16T08:49:43;97179.59;;;5.45;53.29
50977;BME280;36992;48.200;12.418;2023-03-16T08:52:10;97175.53;;;5.43;53.61
50977;BME280;36992;48.200;12.418;2023-03-16T08:54:37;97168.91;;;5.45;53.44
50977;BME280;36992;48.200;12.418;2023-03-16T08:57:04;97165.41;;;5.45;53.35
50977;BME280;36992;48.200;12.418;2023-03-16T08:59:30;97161.66;;;5.46;53.31
50977;BME280;36992;48.200;12.418;2023-03-16T09:01:57;97170.75;;;5.45;53.49
50977;BME280;36992;48.200;12.418;2023-03-16T09:04:24;97168.31;;;5.43;53.83
50977;BME280;36992;48.200;12.418;2023-03-16T09:06:53;97182.25;;;5.45;53.89
50977;BME280;36992;48.200;12.418;2023-03-16T09:09:20;97173.41;;;5.45;53.71
50977;BME280;36992;48.200;12.418;2023-03-16T09:11:46;97172.34;;;5.46;53.69
50977;BME280;36992;48.200;12.418;2023-03-16T09:14:14;97169.44;;;5.47;53.98
50977;BME280;36992;48.200;12.418;2023-03-16T09:16:41;97160.91;;;5.50;54.27
50977;BME280;36992;48.200;12.418;2023-03-16T09:19:08;97165.53;;;5.55;54.43
50977;BME280;36992;48.200;12.418;2023-03-16T09:21:36;97164.78;;;5.60;54.32
50977;BME280;36992;48.200;12.418;2023-03-16T09:24:04;97164.84;;;5.65;54.41
50977;BME280;36992;48.200;12.418;2023-03-16T09:26:32;97164.34;;;5.68;54.34
50977;BME280;36992;48.200;12.418;2023-03-16T09:28:59;97160.94;;;5.73;54.82
50977;BME280;36992;48.200;12.418;2023-03-16T09:31:26;97154.59;;;5.79;54.84
50977;BME280;36992;48.200;12.418;2023-03-16T09:33:52;97154.94;;;5.88;55.02
50977;BME280;36992;48.200;12.418;2023-03-16T09:36:19;97147.56;;;5.95;54.68
50977;BME280;36992;48.200;12.418;2023-03-16T09:38:45;97152.47;;;6.03;54.33
50977;BME280;36992;48.200;12.418;2023-03-16T09:41:28;97146.19;;;6.15;53.39
50977;BME280;36992;48.200;12.418;2023-03-16T09:44:03;97144.34;;;6.20;53.76
50977;BME280;36992;48.200;12.418;2023-03-16T09:46:36;97150.28;;;6.23;54.48
50977;BME280;36992;48.200;12.418;2023-03-16T09:49:07;97151.59;;;6.25;54.88
50977;BME280;36992;48.200;12.418;2023-03-16T09:51:37;97145.25;;;6.31;54.31
50977;BME280;36992;48.200;12.418;2023-03-16T09:54:14;97143.19;;;6.39;53.82
50977;BME280;36992;48.200;12.418;2023-03-16T09:56:45;97142.41;;;6.43;54.27
50977;BME280;36992;48.200;12.418;2023-03-16T09:59:14;97136.28;;;6.48;54.74
50977;BME280;36992;48.200;12.418;2023-03-16T10:01:53;97130.47;;;6.56;53.79
50977;BME280;36992;48.200;12.418;2023-03-16T10:04:34;97130.81;;;6.65;53.92
50977;BME280;36992;48.200;12.418;2023-03-16T10:07:15;97131.66;;;6.71;53.88
50977;BME280;36992;48.200;12.418;2023-03-16T10:09:49;97124.22;;;6.78;53.95
50977;BME280;36992;48.200;12.418;2023-03-16T10:12:22;97129.09;;;6.86;54.11
50977;BME280;36992;48.200;12.418;2023-03-16T10:14:55;97116.84;;;6.96;54.38
50977;BME280;36992;48.200;12.418;2023-03-16T10:17:27;97126.25;;;7.04;54.33
50977;BME280;36992;48.200;12.418;2023-03-16T10:19:58;97113.16;;;7.12;54.09
50977;BME280;36992;48.200;12.418;2023-03-16T10:22:29;97123.94;;;7.23;53.45
50977;BME280;36992;48.200;12.418;2023-03-16T10:25:02;97122.09;;;7.28;53.52
50977;BME280;36992;48.200;12.418;2023-03-16T10:27:35;97111.69;;;7.37;52.58
50977;BME280;36992;48.200;12.418;2023-03-16T10:30:09;;;;7.44;
50977;BME280;36992;48.200;12.418;2023-03-16T10:32:43;97107.97;;;7.49;50.24
50977;BME280;36992;48.200;12.418;2023-03-16T10:35:19;97115.00;;;7.60;50.72
50977;BME280;36992;48.200;12.418;2023-03-16T10:37:47;97103.22;;;7.66;49.95
50977;BME280;36992;48.200;12.418;2023-03-16T10:40:14;97106.19;;;7.75;49.83
50977;BME280;36992;48.200;12.418;2023-03-16T10:42:45;97105.94;;;7.87;49.35
50977;BME280;36992;48.200;12.418;2023-03-16T10:45:22;97101.69;;;7.96;49.19
50977;BME280;36992;48.200;12.418;2023-03-16T10:47:49;97096.06;;;8.03;48.55
50977;BME280;36992;48.200;12.418;2023-03-16T10:50:22;97100.13;;;8.16;49.20
50977;BME280;36992;48.200;12.418;2023-03-16T10:52:49;97109.25;;;8.20;48.45
50977;BME280;36992;48.200;12.418;2023-03-16T10:55:21;97100.09;;;8.32;48.08
50977;BME280;36992;48.200;12.418;2023-03-16T10:57:50;97099.03;;;8.38;47.48
50977;BME280;36992;48.200;12.418;2023-03-16T11:00:20;97093.16;;;8.46;47.02
50977;BME280;36992;48.200;12.418;2023-03-16T11:02:48;97096.91;;;8.50;46.64
50977;BME280;36992;48.200;12.418;2023-03-16T11:05:25;97082.41;;;8.62;47.91
50977;BME280;36992;48.200;12.418;2023-03-16T11:07:58;97081.34;;;8.68;47.20
50977;BME280;36992;48.200;12.418;2023-03-16T11:10:28;97078.38;;;8.75;46.66
50977;BME280;36992;48.200;12.418;2023-03-16T11:13:02;97078.66;;;8.79;47.04
50977;BME280;36992;48.200;12.418;2023-03-16T11:15:35;97066.28;;;8.83;46.94
50977;BME280;36992;48.200;12.418;2023-03-16T11:18:02;97060.91;;;8.83;45.58
50977;BME280;36992;48.200;12.418;2023-03-16T11:20:31;97060.34;;;8.91;45.70
50977;BME280;36992;48.200;12.418;2023-03-16T11:22:59;97065.16;;;8.94;45.67
50977;BME280;36992;48.200;12.418;2023-03-16T11:25:28;97065.72;;;9.01;45.28
50977;BME280;36992;48.200;12.418;2023-03-16T11:28:05;97057.34;;;9.08;45.89
50977;BME280;36992;48.200;12.418;2023-03-16T11:30:40;97049.84;;;9.10;44.77
50977;BME280;36992;48.200;12.418;2023-03-16T11:33:09;97050.59;;;9.16;44.13
50977;BME280;36992;48.200;12.418;2023-03-16T11:35:43;97045.22;;;9.26;45.48
50977;BME280;36992;48.200;12.418;2023-03-16T11:38:14;97041.41;;;9.33;44.60
50977;BME280;36992;48.200;12.418;2023-03-16T11:40:54;97039.22;;;9.40;45.83
50977;BME280;36992;48.200;12.418;2023-03-16T11:43:51;97030.56;;;9.48;45.03
50977;BME280;36992;48.200;12.418;2023-03-16T11:46:21;97022.22;;;9.50;43.98
50977;BME280;36992;48.200;12.418;2023-03-16T11:48:54;97017.09;;;9.53;43.85
50977;BME280;36992;48.200;12.418;2023-03-16T11:51:33;97024.06;;;9.60;44.06
50977;BME280;36992;48.200;12.418;2023-03-16T11:54:10;97015.66;;;9.66;44.06
50977;BME280;36992;48.200;12.418;2023-03-16T11:56:45;97010.56;;;9.70;43.22
50977;BME280;36992;48.200;12.418;2023-03-16T11:59:30;97003.50;;;9.79;44.72
50977;BME280;36992;48.200;12.418;2023-03-16T12:02:23;97005.06;;;9.85;44.68
50977;BME280;36992;48.200;12.418;2023-03-16T12:05:03;96997.50;;;9.88;43.07
50977;BME280;36992;48.200;12.418;2023-03-16T12:07:42;96987.53;;;9.93;42.95
50977;BME280;36992;48.200;12.418;2023-03-16T12:10:22;96990.41;;;10.02;44.13
50977;BME280;36992;48.200;12.418;2023-03-16T12:12:59;96992.25;;;10.07;43.93
50977;BME280;36992;48.200;12.418;2023-03-16T12:15:33;96982.81;;;10.09;42.34
50977;BME280;36992;48.200;12.418;2023-03-16T12:18:09;96976.59;;;10.14;43.01
50977;BME280;36992;48.200;12.418;2023-03-16T12:20:41;96977.91;;;10.17;42.74
50977;BME280;36992;48.200;12.418;2023-03-16T12:23:12;96971.44;;;10.18;42.06
50977;BME280;36992;48.200;12.418;2023-03-16T12:25:42;96969.28;;;10.20;42.07
50977;BME280;36992;48.200;12.418;2023-03-16T12:28:15;96968.16;;;10.26;41.59
50977;BME280;36992;48.200;12.418;2023-03-16T12:30:48;96959.22;;;10.31;41.38
50977;BME280;36992;48.200;12.418;2023-03-16T12:33:21;96967.25;;;10.36;41.80
50977;BME280;36992;48.200;12.418;2023-03-16T12:35:56;96961.28;;;10.39;41.34
50977;BME280;36992;48.200;12.418;2023-03-16T12:38:33;96955.59;;;10.46;42.23
50977;BME280;36992;48.200;12.418;2023-03-16T12:41:12;96959.31;;;10.50;41.72
50977;BME280;36992;48.200;12.418;2023-03-16T12:43:50;96960.34;;;10.54;42.01
50977;BME280;36992;48.200;12.418;2023-03-16T12:46:22;96951.72;;;10.57;41.37
50977;BME280;36992;48.200;12.418;2023-03-16T12:48:54;96958.13;;;10.61;41.09
50977;BME280;36992;48.200;12.418;2023-03-16T12:51:31;96954.56;;;10.66;41.12
50977;BME280;36992;48.200;12.418;2023-03-16T12:53:58;96954.88;;;10.64;39.84
50977;BME280;36992;48.200;12.418;2023-03-16T12:56:27;96937.00;;;10.69;40.44
50977;BME280;36992;48.200;12.418;2023-03-16T12:58:56;96945.31;;;10.72;40.41
50977;BME280;36992;48.200;12.418;2023-03-16T13:01:27;96953.06;;;10.79;40.65
50977;BME280;36992;48.200;12.418;2023-03-16T13:03:59;96944.72;;;10.81;40.02
50977;BME280;36992;48.200;12.418;2023-03-16T13:06:32;96945.22;;;10.83;40.08
50977;BME280;36992;48.200;12.418;2023-03-16T13:09:00;96943.91;;;10.80;39.26